createdAt,value
2018-03-03T00:00:47.742Z,0.34
2018-03-03T00:02:02.328Z,0.34
2018-03-03T00:03:16.794Z,0.33
2018-03-03T00:04:31.162Z,0.39
2018-03-03T00:05:45.198Z,0.45
2018-03-03T00:06:59.243Z,0.47
2018-03-03T00:08:12.792Z,0.4
2018-03-03T00:09:27.262Z,0.44
2018-03-03T00:10:42.055Z,0.45
2018-03-03T00:11:56.045Z,0.39
2018-03-03T00:13:10.300Z,0.48
2018-03-03T00:14:24.643Z,0.47
2018-03-03T00:15:38.414Z,0.36
2018-03-03T00:16:53.268Z,0.3
2018-03-03T00:18:07.567Z,0.3
2018-03-03T00:19:21.820Z,0.31
2018-03-03T00:20:35.819Z,0.26
2018-03-03T00:21:50.024Z,0.3
2018-03-03T00:23:04.302Z,0.24
2018-03-03T00:24:18.868Z,0.31
2018-03-03T00:25:33.123Z,0.33
2018-03-03T00:26:46.910Z,0.42
2018-03-03T00:28:16.025Z,0.34
2018-03-03T00:29:30.511Z,0.48
2018-03-03T00:30:44.119Z,0.34
2018-03-03T00:31:58.932Z,0.37
2018-03-03T00:33:13.210Z,0.48
2018-03-03T00:34:27.013Z,0.36
2018-03-03T00:35:41.771Z,0.37
2018-03-03T00:36:56.317Z,0.45
2018-03-03T00:38:10.569Z,0.3
2018-03-03T00:39:24.697Z,0.31
2018-03-03T00:40:38.942Z,0.26
2018-03-03T00:41:53.233Z,0.09
2018-03-03T00:43:07.479Z,0.15
2018-03-03T00:44:22.228Z,0.12
2018-03-03T00:45:36.340Z,0.31
2018-03-03T00:46:50.369Z,0.26
2018-03-03T00:48:04.768Z,0.24
2018-03-03T00:49:19.102Z,0.12
2018-03-03T00:50:33.090Z,0.15
2018-03-03T00:51:47.679Z,0.16
2018-03-03T00:53:02.538Z,0.11
2018-03-03T00:54:17.117Z,0.15
2018-03-03T00:55:31.399Z,0.18
2018-03-03T00:56:45.679Z,0.24
2018-03-03T00:57:59.713Z,0.16
2018-03-03T00:59:14.502Z,0.26
2018-03-03T01:00:28.873Z,0.3
2018-03-03T01:01:42.660Z,0.37
2018-03-03T01:02:56.699Z,0.29
2018-03-03T01:04:11.148Z,0.27
2018-03-03T01:05:25.657Z,0.18
2018-03-03T01:06:39.981Z,0.15
2018-03-03T01:07:54.760Z,0.19
2018-03-03T01:09:08.544Z,0.27
2018-03-03T01:10:23.152Z,0.26
2018-03-03T01:11:37.226Z,0.34
2018-03-03T01:12:51.788Z,0.19
2018-03-03T01:14:05.648Z,0.13
2018-03-03T01:15:20.115Z,0.16
2018-03-03T01:16:34.378Z,0.16
2018-03-03T01:17:49.185Z,0.15
2018-03-03T01:19:03.757Z,0.26
2018-03-03T01:20:18.582Z,0.15
2018-03-03T01:21:33.147Z,0.26
2018-03-03T01:22:47.538Z,0.24
2018-03-03T01:24:01.331Z,0.27
2018-03-03T01:25:15.172Z,0.29
2018-03-03T01:26:29.473Z,0.19
2018-03-03T01:27:44.008Z,0.16
2018-03-03T01:28:58.096Z,0.24
2018-03-03T01:30:12.673Z,0.12
2018-03-03T01:31:27.014Z,0.27
2018-03-03T01:32:41.287Z,0.37
2018-03-03T01:33:55.087Z,0.31
2018-03-03T01:35:09.643Z,0.11
2018-03-03T01:36:23.937Z,0.26
2018-03-03T01:37:38.912Z,0.3
2018-03-03T01:38:53.488Z,0.27
2018-03-03T01:40:07.547Z,0.24
2018-03-03T01:41:22.395Z,0.27
2018-03-03T01:42:36.952Z,0.29
2018-03-03T01:43:51.528Z,0.33
2018-03-03T01:45:06.376Z,0.31
2018-03-03T01:46:20.877Z,0.36
2018-03-03T01:47:35.069Z,0.26
2018-03-03T01:48:49.844Z,0.24
2018-03-03T01:50:04.690Z,0.23
2018-03-03T01:51:18.765Z,0.34
2018-03-03T01:52:32.781Z,0.29
2018-03-03T01:53:47.137Z,0.16
2018-03-03T01:55:01.408Z,0.23
2018-03-03T01:56:15.510Z,0.19
2018-03-03T01:57:29.583Z,0.12
2018-03-03T01:58:43.844Z,0.15
2018-03-03T01:59:58.183Z,0.08
2018-03-03T02:01:11.965Z,0.08
2018-03-03T02:02:26.740Z,0.06
2018-03-03T02:03:41.020Z,0.08
2018-03-03T02:04:54.812Z,-0.06
2018-03-03T02:06:09.438Z,0.06
2018-03-03T02:07:23.930Z,-0.03
2018-03-03T02:08:38.247Z,-0.02
2018-03-03T02:09:52.024Z,0.01
2018-03-03T02:11:06.145Z,-0.1
2018-03-03T02:12:19.944Z,-0.07
2018-03-03T02:13:33.724Z,-0.02
2018-03-03T02:14:48.067Z,0
2018-03-03T02:16:02.328Z,0.08
2018-03-03T02:17:16.860Z,0.05
2018-03-03T02:18:31.386Z,0.12
2018-03-03T02:19:46.187Z,0.11
2018-03-03T02:21:00.792Z,0.16
2018-03-03T02:22:14.571Z,0.16
2018-03-03T02:23:28.853Z,0.2
2018-03-03T02:24:42.873Z,0.15
2018-03-03T02:25:57.004Z,0.12
2018-03-03T02:27:12.106Z,0.18
2018-03-03T02:28:26.107Z,0.12
2018-03-03T02:29:40.627Z,0.16
2018-03-03T02:30:55.183Z,0.13
2018-03-03T02:32:10.142Z,0.16
2018-03-03T02:33:24.717Z,0.29
2018-03-03T02:34:38.760Z,0.27
2018-03-03T02:35:52.321Z,0.29
2018-03-03T02:37:06.430Z,0.11
2018-03-03T02:38:20.707Z,0.12
2018-03-03T02:39:35.054Z,0.15
2018-03-03T02:40:49.795Z,0.06
2018-03-03T02:42:03.821Z,0.06
2018-03-03T02:43:17.659Z,0.02
2018-03-03T02:44:32.290Z,0.06
2018-03-03T02:45:46.894Z,0.06
2018-03-03T02:47:00.952Z,-0.02
2018-03-03T02:48:15.273Z,0.01
2018-03-03T02:49:29.824Z,0.05
2018-03-03T02:50:43.848Z,-0.09
2018-03-03T02:51:58.686Z,-0.07
2018-03-03T02:53:12.846Z,-0.07
2018-03-03T02:54:27.408Z,-0.1
2018-03-03T02:55:41.474Z,-0.2
2018-03-03T02:56:55.714Z,-0.23
2018-03-03T02:58:10.044Z,-0.15
2018-03-03T02:59:24.610Z,-0.26
2018-03-03T03:00:39.182Z,-0.3
2018-03-03T03:01:53.472Z,-0.23
2018-03-03T03:03:07.339Z,-0.28
2018-03-03T03:04:22.677Z,-0.24
2018-03-03T03:05:37.002Z,-0.2
2018-03-03T03:06:51.571Z,-0.2
2018-03-03T03:08:05.665Z,-0.21
2018-03-03T03:09:20.215Z,-0.23
2018-03-03T03:10:35.025Z,-0.23
2018-03-03T03:11:50.155Z,-0.18
2018-03-03T03:13:19.480Z,-0.24
2018-03-03T03:14:33.516Z,-0.21
2018-03-03T03:15:48.596Z,-0.21
2018-03-03T03:17:02.755Z,-0.23
2018-03-03T03:18:16.771Z,-0.24
2018-03-03T03:19:31.337Z,-0.18
2018-03-03T03:20:45.638Z,-0.2
2018-03-03T03:22:00.197Z,-0.2
2018-03-03T03:23:14.465Z,-0.13
2018-03-03T03:24:28.495Z,-0.02
2018-03-03T03:25:42.706Z,-0.06
2018-03-03T03:26:56.743Z,-0.07
2018-03-03T03:28:10.582Z,-0.12
2018-03-03T03:29:25.108Z,-0.12
2018-03-03T03:30:39.117Z,-0.12
2018-03-03T03:31:53.887Z,-0.07
2018-03-03T03:33:07.920Z,-0.03
2018-03-03T03:34:22.543Z,-0.05
2018-03-03T03:38:05.079Z,-0.09
2018-03-03T03:39:19.643Z,-0.06
2018-03-03T03:40:34.437Z,0.02
2018-03-03T03:41:48.191Z,-0.09
2018-03-03T03:43:02.798Z,0.05
2018-03-03T03:44:16.904Z,0.01
2018-03-03T03:45:31.391Z,-0.05
2018-03-03T03:46:46.225Z,-0.15
2018-03-03T03:47:59.990Z,-0.06
2018-03-03T03:49:14.259Z,-0.21
2018-03-03T03:50:29.127Z,-0.17
2018-03-03T03:51:43.621Z,-0.12
2018-03-03T03:52:58.242Z,-0.02
2018-03-03T03:54:12.509Z,-0.09
2018-03-03T03:55:26.279Z,-0.05
2018-03-03T03:56:40.577Z,-0.02
2018-03-03T03:57:54.694Z,0.02
2018-03-03T03:59:09.500Z,0
2018-03-03T04:00:23.100Z,0.01
2018-03-03T04:01:37.347Z,-0.1
2018-03-03T04:02:51.646Z,-0.05
2018-03-03T04:04:06.258Z,0.06
2018-03-03T04:05:20.398Z,-0.03
2018-03-03T04:06:34.212Z,-0.05
2018-03-03T04:07:47.990Z,-0.06
2018-03-03T04:09:02.297Z,-0.05
2018-03-03T04:10:16.488Z,0
2018-03-03T04:11:31.063Z,-0.02
2018-03-03T04:12:44.870Z,-0.05
2018-03-03T04:13:59.204Z,-0.03
2018-03-03T04:15:12.989Z,-0.1
2018-03-03T04:16:27.337Z,-0.06
2018-03-03T04:17:41.248Z,-0.05
2018-03-03T04:18:55.521Z,-0.06
2018-03-03T04:20:09.048Z,0.05
2018-03-03T04:21:23.328Z,-0.03
2018-03-03T04:22:38.230Z,-0.15
2018-03-03T04:23:52.679Z,-0.12
2018-03-03T04:25:07.163Z,-0.1
2018-03-03T04:26:21.619Z,-0.17
2018-03-03T04:27:35.619Z,-0.28
2018-03-03T04:28:50.224Z,-0.17
2018-03-03T04:30:04.537Z,-0.18
2018-03-03T04:31:18.573Z,-0.2
2018-03-03T04:32:32.861Z,-0.18
2018-03-03T04:33:46.864Z,-0.21
2018-03-03T04:35:01.149Z,-0.15
2018-03-03T04:36:16.037Z,-0.07
2018-03-03T04:37:30.292Z,-0.18
2018-03-03T04:38:44.257Z,-0.23
2018-03-03T04:39:58.755Z,-0.18
2018-03-03T04:41:12.701Z,-0.35
2018-03-03T04:42:27.207Z,-0.38
2018-03-03T04:43:41.715Z,-0.26
2018-03-03T04:44:55.725Z,-0.24
2018-03-03T04:46:09.958Z,-0.39
2018-03-03T04:47:24.701Z,-0.38
2018-03-03T04:48:39.206Z,-0.45
2018-03-03T04:49:53.219Z,-0.57
2018-03-03T04:51:07.437Z,-0.53
2018-03-03T04:52:21.911Z,-0.51
2018-03-03T04:53:36.558Z,-0.51
2018-03-03T04:54:51.349Z,-0.48
2018-03-03T04:56:05.360Z,-0.51
2018-03-03T04:57:20.025Z,-0.46
2018-03-03T04:58:34.321Z,-0.39
2018-03-03T04:59:48.983Z,-0.54
2018-03-03T05:01:03.530Z,-0.54
2018-03-03T05:02:17.796Z,-0.53
2018-03-03T05:03:31.767Z,-0.45
2018-03-03T05:04:45.994Z,-0.49
2018-03-03T05:06:00.584Z,-0.56
2018-03-03T05:07:15.188Z,-0.53
2018-03-03T05:08:28.967Z,-0.54
2018-03-03T05:09:43.023Z,-0.46
2018-03-03T05:10:56.828Z,-0.45
2018-03-03T05:12:12.261Z,-0.51
2018-03-03T05:13:27.054Z,-0.48
2018-03-03T05:14:40.843Z,-0.57
2018-03-03T05:15:55.331Z,-0.54
2018-03-03T05:17:09.863Z,-0.56
2018-03-03T05:18:24.183Z,-0.54
2018-03-03T05:19:38.514Z,-0.6
2018-03-03T05:20:52.018Z,-0.62
2018-03-03T05:22:06.072Z,-0.56
2018-03-03T05:23:20.102Z,-0.53
2018-03-03T05:24:34.073Z,-0.53
2018-03-03T05:25:48.419Z,-0.57
2018-03-03T05:27:02.440Z,-0.49
2018-03-03T05:28:16.456Z,-0.53
2018-03-03T05:29:30.815Z,-0.49
2018-03-03T05:30:45.242Z,-0.51
2018-03-03T05:32:00.075Z,-0.53
2018-03-03T05:33:14.356Z,-0.51
2018-03-03T05:34:28.628Z,-0.51
2018-03-03T05:35:43.114Z,-0.49
2018-03-03T05:36:58.088Z,-0.54
2018-03-03T05:38:13.132Z,-0.51
2018-03-03T05:39:27.193Z,-0.59
2018-03-03T05:40:41.472Z,-0.59
2018-03-03T05:41:55.996Z,-0.56
2018-03-03T05:43:10.666Z,-0.45
2018-03-03T05:44:25.476Z,-0.51
2018-03-03T05:45:39.238Z,-0.42
2018-03-03T05:46:53.522Z,-0.53
2018-03-03T05:48:07.562Z,-0.38
2018-03-03T05:49:21.853Z,-0.54
2018-03-03T05:50:36.895Z,-0.53
2018-03-03T05:51:51.160Z,-0.57
2018-03-03T05:53:05.184Z,-0.56
2018-03-03T05:54:19.437Z,-0.46
2018-03-03T05:55:33.679Z,-0.51
2018-03-03T05:56:47.988Z,-0.62
2018-03-03T05:58:02.197Z,-0.54
2018-03-03T05:59:15.993Z,-0.51
2018-03-03T06:00:29.742Z,-0.62
2018-03-03T06:01:43.973Z,-0.67
2018-03-03T06:02:58.051Z,-0.57
2018-03-03T06:04:12.155Z,-0.74
2018-03-03T06:05:26.475Z,-0.72
2018-03-03T06:06:40.759Z,-0.69
2018-03-03T06:07:55.376Z,-0.66
2018-03-03T06:09:10.032Z,-0.56
2018-03-03T06:10:24.087Z,-0.56
2018-03-03T06:11:37.859Z,-0.59
2018-03-03T06:12:52.154Z,-0.72
2018-03-03T06:14:06.652Z,-0.66
2018-03-03T06:15:20.991Z,-0.54
2018-03-03T06:16:35.536Z,-0.57
2018-03-03T06:17:50.001Z,-0.56
2018-03-03T06:19:04.500Z,-0.51
2018-03-03T06:20:19.013Z,-0.56
2018-03-03T06:21:33.309Z,-0.62
2018-03-03T06:22:47.552Z,-0.64
2018-03-03T06:24:01.353Z,-0.53
2018-03-03T06:25:15.837Z,-0.54
2018-03-03T06:26:30.304Z,-0.57
2018-03-03T06:27:44.895Z,-0.51
2018-03-03T06:28:58.874Z,-0.51
2018-03-03T06:30:13.115Z,-0.45
2018-03-03T06:31:27.366Z,-0.53
2018-03-03T06:32:41.129Z,-0.51
2018-03-03T06:33:55.230Z,-0.53
2018-03-03T06:35:09.712Z,-0.63
2018-03-03T06:36:23.970Z,-0.6
2018-03-03T06:37:37.885Z,-0.6
2018-03-03T06:38:51.612Z,-0.57
2018-03-03T06:40:06.460Z,-0.49
2018-03-03T06:41:20.481Z,-0.48
2018-03-03T06:42:34.730Z,-0.57
2018-03-03T06:43:48.500Z,-0.46
2018-03-03T06:45:02.521Z,-0.42
2018-03-03T06:46:17.852Z,-0.44
2018-03-03T06:47:32.109Z,-0.33
2018-03-03T06:48:46.107Z,-0.42
2018-03-03T06:50:00.101Z,-0.54
2018-03-03T06:51:14.591Z,-0.39
2018-03-03T06:52:29.462Z,-0.53
2018-03-03T06:53:43.723Z,-0.36
2018-03-03T06:54:57.794Z,-0.38
2018-03-03T06:56:12.049Z,-0.36
2018-03-03T06:57:25.798Z,-0.31
2018-03-03T06:58:40.123Z,-0.23
2018-03-03T06:59:53.658Z,-0.12
2018-03-03T07:01:07.933Z,-0.1
2018-03-03T07:02:22.217Z,-0.2
2018-03-03T07:03:36.509Z,-0.17
2018-03-03T07:04:50.623Z,-0.13
2018-03-03T07:06:04.371Z,-0.05
2018-03-03T07:07:18.391Z,0
2018-03-03T07:08:32.436Z,-0.02
2018-03-03T07:09:46.198Z,0.13
2018-03-03T07:11:00.697Z,0
2018-03-03T07:12:14.479Z,0.09
2018-03-03T07:13:28.703Z,-0.05
2018-03-03T07:14:42.941Z,0.09
2018-03-03T07:15:57.240Z,0.16
2018-03-03T07:17:11.833Z,0.13
2018-03-03T07:18:26.165Z,0.18
2018-03-03T07:19:40.426Z,0.08
2018-03-03T07:20:54.449Z,0.11
2018-03-03T07:22:08.463Z,0.01
2018-03-03T07:23:23.007Z,0.18
2018-03-03T07:24:36.983Z,0.18
2018-03-03T07:25:51.210Z,0.24
2018-03-03T07:27:04.960Z,0.3
2018-03-03T07:28:19.555Z,0.45
2018-03-03T07:29:34.371Z,0.44
2018-03-03T07:30:48.359Z,0.37
2018-03-03T07:32:02.356Z,0.33
2018-03-03T07:33:16.361Z,0.36
2018-03-03T07:34:30.352Z,0.23
2018-03-03T07:35:44.645Z,0.3
2018-03-03T07:36:58.936Z,0.27
2018-03-03T07:38:13.167Z,0.31
2018-03-03T07:39:27.708Z,0.31
2018-03-03T07:40:42.252Z,0.24
2018-03-03T07:41:56.882Z,0.3
2018-03-03T07:43:10.965Z,0.29
2018-03-03T07:44:25.094Z,0.27
2018-03-03T07:45:39.371Z,0.26
2018-03-03T07:46:53.652Z,0.37
2018-03-03T07:48:07.724Z,0.29
2018-03-03T07:49:21.530Z,0.39
2018-03-03T07:50:35.791Z,0.33
2018-03-03T07:51:50.074Z,0.36
2018-03-03T07:53:04.349Z,0.45
2018-03-03T07:54:18.904Z,0.58
2018-03-03T07:55:33.264Z,0.74
2018-03-03T07:56:47.760Z,0.67
2018-03-03T07:58:01.782Z,0.67
2018-03-03T07:59:16.515Z,0.63
2018-03-03T08:00:31.081Z,0.77
2018-03-03T08:01:45.087Z,0.85
2018-03-03T08:02:59.087Z,0.89
2018-03-03T08:04:13.376Z,0.81
2018-03-03T08:05:28.119Z,0.88
2018-03-03T08:06:42.440Z,0.76
2018-03-03T08:07:56.431Z,0.68
2018-03-03T08:09:10.987Z,0.52
2018-03-03T08:10:25.021Z,0.7
2018-03-03T08:11:39.514Z,0.73
2018-03-03T08:12:54.677Z,0.56
2018-03-03T08:14:08.689Z,0.58
2018-03-03T08:15:23.445Z,0.66
2018-03-03T08:16:37.710Z,0.64
2018-03-03T08:17:52.088Z,0.74
2018-03-03T08:19:06.399Z,0.81
2018-03-03T08:20:21.079Z,0.7
2018-03-03T08:21:35.481Z,0.85
2018-03-03T08:22:50.215Z,0.86
2018-03-03T08:24:04.718Z,0.76
2018-03-03T08:25:18.509Z,0.84
2018-03-03T08:26:32.535Z,0.74
2018-03-03T08:27:47.295Z,0.73
2018-03-03T08:29:01.541Z,0.63
2018-03-03T08:30:15.558Z,0.49
2018-03-03T08:31:30.109Z,0.52
2018-03-03T08:32:43.845Z,0.66
2018-03-03T08:33:58.263Z,0.56
2018-03-03T08:35:11.981Z,0.66
2018-03-03T08:36:26.444Z,0.58
2018-03-03T08:37:41.032Z,0.64
2018-03-03T08:38:55.776Z,0.74
2018-03-03T08:40:10.104Z,0.73
2018-03-03T08:41:24.110Z,0.77
2018-03-03T08:42:38.361Z,0.81
2018-03-03T08:43:52.447Z,0.89
2018-03-03T08:45:06.281Z,1
2018-03-03T08:46:21.165Z,1.13
2018-03-03T08:47:35.417Z,1.04
2018-03-03T08:48:49.658Z,0.96
2018-03-03T08:50:04.222Z,0.99
2018-03-03T08:51:18.348Z,0.99
2018-03-03T08:52:32.444Z,0.96
2018-03-03T08:53:46.524Z,1.12
2018-03-03T08:55:00.800Z,1.16
2018-03-03T08:56:14.859Z,1.13
2018-03-03T08:57:28.604Z,1.24
2018-03-03T08:58:42.125Z,1.31
2018-03-03T08:59:56.450Z,1.39
2018-03-03T09:01:10.735Z,1.36
2018-03-03T09:02:25.305Z,1.45
2018-03-03T09:03:39.309Z,1.32
2018-03-03T09:04:53.316Z,1.38
2018-03-03T09:06:07.344Z,1.48
2018-03-03T09:07:21.126Z,1.53
2018-03-03T09:08:35.442Z,1.63
2018-03-03T09:09:49.221Z,1.76
2018-03-03T09:11:03.232Z,1.88
2018-03-03T09:12:17.494Z,2.12
2018-03-03T09:13:31.121Z,1.85
2018-03-03T09:14:45.435Z,1.89
2018-03-03T09:15:59.807Z,1.85
2018-03-03T09:17:14.568Z,2
2018-03-03T09:18:28.124Z,1.93
2018-03-03T09:19:41.929Z,1.97
2018-03-03T09:20:56.501Z,2
2018-03-03T09:22:11.324Z,2
2018-03-03T09:23:25.551Z,2.08
2018-03-03T09:24:39.712Z,2.3
2018-03-03T09:25:54.241Z,2.28
2018-03-03T09:27:09.353Z,2.07
2018-03-03T09:28:23.146Z,1.98
2018-03-03T09:29:37.181Z,2.1
2018-03-03T09:30:50.959Z,2.1
2018-03-03T09:32:04.828Z,2.21
2018-03-03T09:33:19.417Z,2.08
2018-03-03T09:34:33.922Z,2.01
2018-03-03T09:36:02.898Z,2.1
2018-03-03T09:37:17.511Z,2.07
2018-03-03T09:38:31.822Z,2.08
2018-03-03T09:39:46.682Z,2.16
2018-03-03T09:41:00.675Z,2.18
2018-03-03T09:42:14.978Z,2.21
2018-03-03T09:43:29.477Z,2.51
2018-03-03T09:44:44.342Z,2.4
2018-03-03T09:45:57.851Z,2.58
2018-03-03T09:47:11.864Z,2.3
2018-03-03T09:48:25.867Z,2.26
2018-03-03T09:49:39.702Z,2.39
2018-03-03T09:50:54.699Z,2.37
2018-03-03T09:52:08.981Z,2.34
2018-03-03T09:53:23.511Z,2.4
2018-03-03T09:54:38.017Z,2.36
2018-03-03T09:55:52.339Z,2.39
2018-03-03T09:57:07.005Z,2.34
2018-03-03T09:58:21.492Z,2.61
2018-03-03T09:59:34.976Z,2.55
2018-03-03T10:00:49.248Z,2.54
2018-03-03T10:02:13.109Z,2.57
2018-03-03T10:03:27.358Z,2.55
2018-03-03T10:04:41.639Z,2.65
2018-03-03T10:05:55.913Z,2.55
2018-03-03T10:07:10.045Z,2.51
2018-03-03T10:08:24.304Z,2.58
2018-03-03T10:09:38.615Z,2.73
2018-03-03T10:10:52.386Z,2.76
2018-03-03T10:12:06.409Z,2.59
2018-03-03T10:13:20.488Z,2.68
2018-03-03T10:14:34.741Z,2.72
2018-03-03T10:15:48.903Z,2.68
2018-03-03T10:17:02.712Z,2.95
2018-03-03T10:18:16.955Z,2.95
2018-03-03T10:19:31.209Z,2.94
2018-03-03T10:20:45.796Z,3.01
2018-03-03T10:22:00.481Z,2.98
2018-03-03T10:23:13.984Z,3.05
2018-03-03T10:24:28.502Z,3.08
2018-03-03T10:25:42.892Z,2.93
2018-03-03T10:26:57.140Z,3.05
2018-03-03T10:28:11.762Z,3
2018-03-03T10:29:25.877Z,3.03
2018-03-03T10:30:39.516Z,3.13
2018-03-03T10:31:53.334Z,3.19
2018-03-03T10:33:07.468Z,3.46
2018-03-03T10:34:22.446Z,3.58
2018-03-03T10:35:36.480Z,3.7
2018-03-03T10:36:50.477Z,3.73
2018-03-03T10:38:05.213Z,3.58
2018-03-03T10:39:19.381Z,3.43
2018-03-03T10:40:34.664Z,3.37
2018-03-03T10:41:48.977Z,3.59
2018-03-03T10:43:02.785Z,3.4
2018-03-03T10:44:16.431Z,3.4
2018-03-03T10:45:30.908Z,3.41
2018-03-03T10:46:45.039Z,3.31
2018-03-03T10:47:59.279Z,3.19
2018-03-03T10:49:13.304Z,3.18
2018-03-03T10:50:26.895Z,3.22
2018-03-03T10:51:40.921Z,3.22
2018-03-03T10:52:55.761Z,3.36
2018-03-03T10:54:10.135Z,3.45
2018-03-03T10:55:24.605Z,3.37
2018-03-03T10:56:38.708Z,3.43
2018-03-03T10:57:53.200Z,3.22
2018-03-03T10:59:08.019Z,3.37
2018-03-03T11:00:22.662Z,3.29
2018-03-03T11:01:36.417Z,3.36
2018-03-03T11:02:50.432Z,3.26
2018-03-03T11:04:04.306Z,3.31
2018-03-03T11:05:19.565Z,3.41
2018-03-03T11:06:34.093Z,3.58
2018-03-03T11:07:48.133Z,3.58
2018-03-03T11:09:02.626Z,3.64
2018-03-03T11:10:16.648Z,3.52
2018-03-03T11:11:30.832Z,3.73
2018-03-03T11:12:44.821Z,3.76
2018-03-03T11:13:59.091Z,3.76
2018-03-03T11:15:12.904Z,3.81
2018-03-03T11:16:27.225Z,3.91
2018-03-03T11:19:11.556Z,3.63
2018-03-03T11:20:24.825Z,3.68
2018-03-03T11:21:38.835Z,3.64
2018-03-03T11:22:53.130Z,3.49
2018-03-03T11:24:07.165Z,3.36
2018-03-03T11:25:21.166Z,3.48
2018-03-03T11:26:35.685Z,3.58
2018-03-03T11:27:50.148Z,3.53
2018-03-03T11:29:04.488Z,3.4
2018-03-03T11:30:18.374Z,3.53
2018-03-03T11:31:32.860Z,3.56
2018-03-03T11:32:46.854Z,3.43
2018-03-03T11:34:01.623Z,3.66
2018-03-03T11:35:16.044Z,3.52
2018-03-03T11:36:30.410Z,3.66
2018-03-03T11:37:44.628Z,3.59
2018-03-03T11:38:59.217Z,3.71
2018-03-03T11:40:13.483Z,3.67
2018-03-03T11:41:28.012Z,3.89
2018-03-03T11:42:42.439Z,3.94
2018-03-03T11:43:56.895Z,3.78
2018-03-03T11:45:11.488Z,3.71
2018-03-03T11:46:26.015Z,3.84
2018-03-03T11:47:40.384Z,3.76
2018-03-03T11:48:54.489Z,3.76
2018-03-03T11:50:08.656Z,3.71
2018-03-03T11:51:22.911Z,3.58
2018-03-03T11:52:37.172Z,3.5
2018-03-03T11:53:51.735Z,3.68
2018-03-03T11:55:05.627Z,3.74
2018-03-03T11:56:19.948Z,3.68
2018-03-03T11:57:33.729Z,3.7
2018-03-03T11:58:47.760Z,3.76
2018-03-03T12:00:01.608Z,3.94
2018-03-03T12:01:15.893Z,3.81
2018-03-03T12:02:30.680Z,3.85
2018-03-03T12:03:45.225Z,3.76
2018-03-03T12:04:59.734Z,3.81
2018-03-03T12:06:14.287Z,4
2018-03-03T12:07:27.822Z,4.25
2018-03-03T12:08:41.624Z,4.25
2018-03-03T12:09:55.986Z,4.13
2018-03-03T12:11:09.971Z,4.04
2018-03-03T12:12:24.570Z,4.12
2018-03-03T12:13:39.206Z,3.94
2018-03-03T12:14:53.349Z,3.99
2018-03-03T12:16:07.491Z,4.09
2018-03-03T12:17:21.524Z,4.09
2018-03-03T12:18:36.337Z,3.92
2018-03-03T12:19:51.032Z,4.25
2018-03-03T12:21:05.356Z,4.43
2018-03-03T12:22:19.734Z,4.5
2018-03-03T12:23:33.270Z,4.4
2018-03-03T12:24:48.075Z,4.3
2018-03-03T12:26:02.593Z,4.1
2018-03-03T12:27:17.060Z,4.09
2018-03-03T12:28:30.840Z,4.06
2018-03-03T12:29:44.886Z,4.13
2018-03-03T12:30:59.225Z,4.36
2018-03-03T12:32:13.774Z,4.27
2018-03-03T12:33:28.072Z,4.46
2018-03-03T12:34:42.081Z,4.32
2018-03-03T12:35:55.889Z,4.4
2018-03-03T12:37:10.335Z,4.39
2018-03-03T12:38:24.660Z,4.57
2018-03-03T12:39:38.200Z,4.74
2018-03-03T12:40:51.816Z,4.86
2018-03-03T12:42:05.418Z,4.94
2018-03-03T12:43:19.831Z,4.97
2018-03-03T12:44:33.889Z,5.22
2018-03-03T12:45:48.585Z,5.38
2018-03-03T12:47:02.448Z,5.55
2018-03-03T12:48:16.730Z,5.18
2018-03-03T12:49:31.361Z,5.31
2018-03-03T12:50:46.756Z,5.34
2018-03-03T12:52:02.100Z,5.26
2018-03-03T12:53:19.398Z,5.19
2018-03-03T12:54:38.143Z,5.34
2018-03-03T12:55:56.399Z,5.28
2018-03-03T12:57:13.365Z,5.28
2018-03-03T12:58:32.353Z,5.29
2018-03-03T12:59:51.323Z,5.37
2018-03-03T13:01:07.768Z,5.65
2018-03-03T13:02:26.109Z,5.69
2018-03-03T13:03:43.388Z,5.62
2018-03-03T13:04:59.792Z,5.74
2018-03-03T13:06:17.964Z,5.67
2018-03-03T13:07:36.452Z,5.19
2018-03-03T13:08:53.605Z,4.9
2018-03-03T13:10:10.360Z,5.15
2018-03-03T13:11:24.725Z,5.41
2018-03-03T13:12:39.024Z,5.64
2018-03-03T13:13:53.297Z,5.46
2018-03-03T13:15:07.602Z,5.31
2018-03-03T13:16:21.951Z,5.44
2018-03-03T13:17:36.309Z,5.19
2018-03-03T13:18:50.841Z,5.01
2018-03-03T13:20:04.906Z,4.95
2018-03-03T13:21:18.709Z,4.92
2018-03-03T13:22:33.242Z,4.9
2018-03-03T13:23:47.083Z,5.13
2018-03-03T13:25:01.116Z,5.05
2018-03-03T13:26:15.622Z,5.1
2018-03-03T13:27:29.743Z,5.18
2018-03-03T13:28:44.195Z,5.2
2018-03-03T13:29:58.314Z,5.08
2018-03-03T13:31:12.339Z,5.15
2018-03-03T13:32:26.511Z,5.31
2018-03-03T13:33:40.789Z,5.28
2018-03-03T13:34:55.302Z,5.37
2018-03-03T13:36:09.907Z,5.1
2018-03-03T13:37:24.004Z,5.04
2018-03-03T13:38:38.308Z,5.1
2018-03-03T13:39:52.804Z,5.13
2018-03-03T13:41:07.458Z,4.94
2018-03-03T13:42:22.599Z,4.76
2018-03-03T13:43:36.932Z,4.94
2018-03-03T13:44:50.722Z,4.79
2018-03-03T13:46:05.395Z,5.07
2018-03-03T13:47:19.441Z,5.19
2018-03-03T13:48:33.777Z,5.22
2018-03-03T13:49:48.394Z,5.31
2018-03-03T13:51:02.764Z,5.12
2018-03-03T13:52:17.288Z,4.84
2018-03-03T13:53:31.668Z,4.75
2018-03-03T13:54:46.732Z,4.67
2018-03-03T13:56:00.515Z,4.89
2018-03-03T13:57:14.601Z,4.83
2018-03-03T13:58:28.944Z,4.82
2018-03-03T13:59:43.295Z,4.87
2018-03-03T14:00:57.902Z,4.66
2018-03-03T14:02:12.236Z,4.68
2018-03-03T14:03:26.872Z,4.74
2018-03-03T14:04:41.430Z,4.57
2018-03-03T14:05:55.483Z,4.48
2018-03-03T14:07:09.806Z,4.49
2018-03-03T14:08:24.113Z,4.5
2018-03-03T14:09:38.644Z,4.56
2018-03-03T14:10:53.030Z,4.52
2018-03-03T14:12:07.605Z,4.48
2018-03-03T14:13:22.520Z,4.39
2018-03-03T14:14:36.809Z,4.52
2018-03-03T14:15:51.383Z,4.63
2018-03-03T14:17:05.646Z,4.48
2018-03-03T14:18:19.458Z,4.5
2018-03-03T14:19:34.322Z,4.48
2018-03-03T14:20:49.020Z,4.5
2018-03-03T14:22:03.608Z,4.42
2018-03-03T14:23:17.333Z,4.34
2018-03-03T14:24:31.177Z,4.4
2018-03-03T14:25:45.893Z,4.3
2018-03-03T14:26:59.540Z,4.12
2018-03-03T14:28:13.445Z,4.28
2018-03-03T14:29:27.327Z,4.31
2018-03-03T14:30:40.954Z,4.25
2018-03-03T14:31:55.925Z,4.3
2018-03-03T14:33:09.595Z,4.18
2018-03-03T14:34:23.206Z,4.38
2018-03-03T14:35:37.282Z,4.4
2018-03-03T14:36:51.652Z,4.42
2018-03-03T14:38:05.846Z,4.36
2018-03-03T14:39:19.953Z,4.38
2018-03-03T14:40:34.338Z,4.25
2018-03-03T14:41:48.679Z,4.42
2018-03-03T14:43:03.212Z,4.34
2018-03-03T14:44:17.937Z,4.12
2018-03-03T14:45:31.995Z,4.34
2018-03-03T14:46:46.612Z,4.2
2018-03-03T14:48:00.708Z,4.2
2018-03-03T14:49:14.800Z,4.12
2018-03-03T14:50:29.425Z,4.18
2018-03-03T14:51:43.229Z,4.12
2018-03-03T14:52:57.549Z,4.22
2018-03-03T14:54:11.416Z,4.1
2018-03-03T14:55:25.753Z,4.06
2018-03-03T14:56:40.035Z,4.18
2018-03-03T14:57:53.877Z,4.18
2018-03-03T14:59:07.916Z,4.31
2018-03-03T15:00:21.712Z,4.28
2018-03-03T15:01:35.041Z,4.27
2018-03-03T15:02:49.666Z,4.18
2018-03-03T15:04:03.932Z,4.16
2018-03-03T15:05:18.010Z,4.16
2018-03-03T15:06:31.758Z,4.12
2018-03-03T15:07:46.048Z,4.09
2018-03-03T15:09:00.475Z,4.06
2018-03-03T15:10:14.841Z,4.02
2018-03-03T15:11:28.864Z,4.14
2018-03-03T15:12:43.410Z,4.16
2018-03-03T15:13:57.207Z,4.04
2018-03-03T15:15:11.802Z,4.09
2018-03-03T15:16:25.548Z,4.09
2018-03-03T15:17:39.832Z,4.07
2018-03-03T15:18:54.131Z,4.13
2018-03-03T15:20:08.435Z,4.22
2018-03-03T15:21:22.995Z,4.18
2018-03-03T15:22:37.243Z,4.27
2018-03-03T15:23:51.241Z,4.13
2018-03-03T15:25:05.041Z,4.3
2018-03-03T15:26:19.580Z,4.28
2018-03-03T15:27:33.673Z,4.28
2018-03-03T15:28:48.303Z,4.18
2018-03-03T15:30:01.697Z,4
2018-03-03T15:31:15.473Z,4.07
2018-03-03T15:32:29.781Z,4.04
2018-03-03T15:33:44.369Z,4.14
2018-03-03T15:34:59.509Z,4
2018-03-03T15:36:13.296Z,4.1
2018-03-03T15:37:27.100Z,4.06
2018-03-03T15:38:41.159Z,3.84
2018-03-03T15:39:56.199Z,3.82
2018-03-03T15:41:10.189Z,3.84
2018-03-03T15:42:24.716Z,3.74
2018-03-03T15:43:38.495Z,3.66
2018-03-03T15:44:52.474Z,3.67
2018-03-03T15:46:07.258Z,3.59
2018-03-03T15:47:36.032Z,3.56
2018-03-03T15:48:49.839Z,3.64
2018-03-03T15:50:03.586Z,3.59
2018-03-03T15:51:17.891Z,3.59
2018-03-03T15:52:32.195Z,3.55
2018-03-03T15:53:46.459Z,3.56
2018-03-03T15:55:00.463Z,3.56
2018-03-03T15:56:14.516Z,3.61
2018-03-03T15:57:28.364Z,3.5
2018-03-03T15:58:42.155Z,3.41
2018-03-03T15:59:55.928Z,3.45
2018-03-03T16:01:09.933Z,3.52
2018-03-03T16:02:24.352Z,3.37
2018-03-03T16:03:38.924Z,3.41
2018-03-03T16:04:53.197Z,3.4
2018-03-03T16:06:07.040Z,3.37
2018-03-03T16:07:21.310Z,3.36
2018-03-03T16:08:35.096Z,3.33
2018-03-03T16:09:49.896Z,3.41
2018-03-03T16:11:03.700Z,3.43
2018-03-03T16:12:18.292Z,3.4
2018-03-03T16:13:32.402Z,3.41
2018-03-03T16:14:46.417Z,3.33
2018-03-03T16:16:01.252Z,3.29
2018-03-03T16:17:15.922Z,3.26
2018-03-03T16:18:29.461Z,3.3
2018-03-03T16:19:43.596Z,3.15
2018-03-03T16:20:57.339Z,3.24
2018-03-03T16:22:11.895Z,3.21
2018-03-03T16:23:25.659Z,3.3
2018-03-03T16:24:39.816Z,3.26
2018-03-03T16:25:54.123Z,3.26
2018-03-03T16:27:08.512Z,3.21
2018-03-03T16:28:23.569Z,3.31
2018-03-03T16:29:37.878Z,3.24
2018-03-03T16:30:52.569Z,3.19